Flight Track Log - Related Links

Times and Time Zones

All times are in EDT time to prevent confusion due to time zone crossing. See the N724AE flight status page for this flight to view local times or setup timezone preferences in your user account.


Time Position Orientation Groundspeed Altitude Reporting Facility
EDT Latitude Longitude Course Direction KTS MPH feet Rate Location/Type
Tue 07:09:31 AM 30.1369 -93.3622 307° West 244 281 5,600  Level Houston Center
Tue 07:10:00 AM 30.2859 -93.4534 311° West  Level FlightAware Approximate
Tue 07:10:31 AM 30.1892 -93.4275 313° West 268 308 7,700  Level Houston Center
Tue 07:11:00 AM 30.3462 -93.5338 311° West  Level FlightAware Approximate
Tue 07:11:32 AM 30.2447 -93.4986 312° West 289 333 10,100  Level Houston Center
Tue 07:12:00 AM 30.4050 -93.6158 308° West  Level FlightAware Approximate
Tue 07:12:33 AM 30.3042 -93.5781 311° West 314 361 11,700  Level Houston Center
Tue 07:13:00 AM 30.4612 -93.7001 308° West  Level FlightAware Approximate
Tue 07:13:34 AM 30.3675 -93.6594 312° West 327 376 14,000  Level Houston Center
Tue 07:14:00 AM 30.5168 -93.7852 307° West  Level FlightAware Approximate
Tue 07:14:34 AM 30.4267 -93.7369 312° West 319 367 16,600  Level Houston Center
Tue 07:15:35 AM 30.4842 -93.8119 312° West 312 359 18,900 2,164 Climbing Houston Center
Tue 07:16:36 AM 30.5417 -93.8889 311° West 314 361 21,000 1,918 Climbing Houston Center
Tue 07:17:37 AM 30.6008 -93.9692 311° West 326 375 22,800 1,623 Climbing Houston Center
Tue 07:18:38 AM 30.6614 -94.0522 310° West 336 387 24,300 1,488 Climbing Houston Center
Tue 07:19:38 AM 30.7242 -94.1375 311° West 345 397 25,800 1,488 Climbing Houston Center
Tue 07:20:39 AM 30.7969 -94.2406 309° West 362 417 27,300 1,082 Climbing Houston Center
Tue 07:21:40 AM 30.8650 -94.3322 311° West 371 427 28,000 344 Climbing Houston Center
Tue 07:22:41 AM 30.9353 -94.4322 309° West 395 455 28,000  Level Houston Center
Tue 07:23:42 AM 31.0164 -94.5444 310° West 426 490 28,000  Level Houston Center
Tue 07:24:43 AM 31.0917 -94.6514 309° West 428 493 28,000  Level Houston Center
Tue 07:25:44 AM 31.1664 -94.7544 310° West 420 483 28,000  Level Houston Center
Tue 07:26:45 AM 31.2389 -94.8578 309° West 414 476 28,000  Level Houston Center
Tue 07:27:46 AM 31.3128 -94.9608 310° West 413 475 28,000  Level Houston Center
Tue 07:28:47 AM 31.3850 -95.0644 309° West 413 475 28,000  Level Houston Center
Tue 07:29:48 AM 31.4636 -95.1742 310° West 412 474 28,000  Level Houston Center
Tue 07:30:49 AM 31.5333 -95.2750 309° West 409 471 28,000  Level Houston Center
Tue 07:31:50 AM 31.6064 -95.3783 310° West 412 474 28,000  Level Houston Center
Tue 07:32:08 AM 31.6361 -95.4200 310° West 411 473 28,000  Level Fort Worth Center
Tue 07:33:08 AM 31.7108 -95.5306 308° West 422 486 28,000  Level Fort Worth Center
Tue 07:34:08 AM 31.7833 -95.6342 309° West 422 486 28,000  Level Fort Worth Center
Tue 07:35:08 AM 31.8558 -95.7403 309° West 416 479 28,000  Level Fort Worth Center
Tue 07:36:08 AM 31.9303 -95.8492 309° West 416 479 28,000 -150 Level Fort Worth Center
Tue 07:37:08 AM 31.9981 -95.9411 311° West 416 479 27,700 -1,300 Descending Fort Worth Center
Tue 07:38:08 AM 32.0703 -96.0503 308° West 416 479 25,400 -2,350 Descending Fort Worth Center
Tue 07:39:08 AM 32.1444 -96.1572 309° West 416 479 23,000 -2,450 Descending Fort Worth Center
Tue 07:40:08 AM 32.2186 -96.2567 311° West 416 479 20,500 -2,500 Descending Fort Worth Center
Tue 07:41:08 AM 32.2986 -96.3517 315° West 385 443 18,000 -2,150 Descending Fort Worth Center
Tue 07:42:08 AM 32.3661 -96.4294 316° Northwest 370 426 16,200 -1,950 Descending Fort Worth Center
Tue 07:43:08 AM 32.4419 -96.5197 315° West 365 420 14,100 -1,950 Descending Fort Worth Center
Tue 07:44:08 AM 32.4989 -96.5906 314° West 347 399 12,300 -1,550 Descending Fort Worth Center
Tue 07:45:08 AM 32.5808 -96.6836 316° Northwest 353 406 11,000 -650 Descending Fort Worth Center
Tue 07:46:08 AM 32.6417 -96.7622 313° West 353 406 11,000  Level Fort Worth Center
Tue 07:47:08 AM 32.7131 -96.8456 316° Northwest 337 388 11,000  Level Fort Worth Center
Tue 07:47:26 AM 32.7333 -96.8667 319° Northwest 294 338 11,000 -250 Level Dallas / Fort Worth TRACON
Tue 07:48:20 AM 32.8000 -96.9000 337° Northwest 314 361 10,700 -1,111 Descending Dallas / Fort Worth TRACON
Tue 07:49:14 AM 32.8833 -96.9000 360° North 301 346 9,000 -1,850 Descending Dallas / Fort Worth TRACON
Tue 07:50:20 AM 32.9667 -96.9167 350° North 287 330 7,000 -1,952 Descending Dallas / Fort Worth TRACON
Tue 07:51:20 AM 33.0333 -96.9333 348° North 271 312 4,900 -2,000 Descending Dallas / Fort Worth TRACON
Tue 07:52:14 AM 33.0667 -97.0000 301° West 264 304 3,200 -1,316 Descending Dallas / Fort Worth TRACON
Tue 07:53:14 AM 33.0500 -97.0500 248° West 190 219 2,400 -800 Descending Dallas / Fort Worth TRACON

Login

Don't have an account? Register now (free) for customized features, flight alerts, and more!